Terminal Aerodrome Forecast
Issued by NWS

Home | Current Version | Previous Version | Text Only | Print | Product List | Glossary On
Versions: 1 2 3 4 5 6 7 8 9 10 11 12 13 14 15 16 17 18 19 20
000
FTUS41 KOKX 202300
TAFSWF
TAF
KSWF 202338Z 2100/2206 26006KT P6SM FEW040 BKN100
     FM210400 VRB03KT P6SM SCT035 OVC100
     FM211500 12004KT P6SM -RA BKN035 OVC080
     FM220000 VRB03KT 5SM -RADZ BR BKN025 OVC040
      AMD NOT SKED=

USA.gov is the U.S. government's official web portal to all federal, state and local government web resources and services.